Time;durP1;ratioP1;P1;durP2;ratioP2;P2;SDS_P1;SDS_P2;PMS_P1;PMS_P2;Temp;Humidity;BMP_temperature;BMP_pressure;BME280_temperature;BME280_humidity;BME280_pressure;Samples;Min_cycle;Max_cycle;Signal;HPM_P1;HPM_P2
2021/04/13 00:02:23;;;;;;;15.50;9.30;;;0.70;99.20;;;;;;5058936;28;20539;-58
2021/04/13 00:04:51;;;;;;;15.30;10.30;;;0.70;99.40;;;;;;5047677;28;20435;-63
2021/04/13 00:07:18;;;;;;;13.97;9.63;;;0.70;99.40;;;;;;5046026;28;20720;-58
2021/04/13 00:09:46;;;;;;;14.03;9.50;;;0.60;99.40;;;;;;5042279;28;20427;-58
2021/04/13 00:12:18;;;;;;;17.03;9.93;;;0.70;99.50;;;;;;5041030;28;20447;-59
2021/04/13 00:14:56;;;;;;;17.00;11.10;;;0.60;99.30;;;;;;5047519;28;20443;-58
2021/04/13 00:17:24;;;;;;;15.90;10.40;;;0.60;99.80;;;;;;5048855;28;20459;-59
2021/04/13 00:19:59;;;;;;;18.13;10.20;;;0.60;99.90;;;;;;5049350;28;20439;-59
2021/04/13 00:22:26;;;;;;;19.07;9.90;;;0.60;99.80;;;;;;5045084;28;20454;-58
2021/04/13 00:24:53;;;;;;;17.00;10.27;;;0.60;99.90;;;;;;5043725;28;21980;-59
2021/04/13 00:27:25;;;;;;;14.67;10.00;;;0.60;99.90;;;;;;5038033;28;20433;-58
2021/04/13 00:30:02;;;;;;;19.67;12.27;;;0.60;99.90;;;;;;5043798;28;20432;-58
2021/04/13 00:32:32;;;;;;;19.53;11.40;;;0.60;99.90;;;;;;5042531;28;20870;-59
2021/04/13 00:35:14;;;;;;;17.90;10.67;;;0.60;99.90;;;;;;5038914;28;20442;-58
2021/04/13 00:37:40;;;;;;;20.53;10.67;;;0.60;99.90;;;;;;5048394;28;20747;-59
2021/04/13 00:40:26;;;;;;;15.53;10.77;;;0.60;99.90;;;;;;5044510;28;20429;-59
2021/04/13 00:43:01;;;;;;;16.67;10.60;;;0.60;99.90;;;;;;5043077;28;20716;-59
2021/04/13 00:45:39;;;;;;;16.30;10.53;;;0.60;99.90;;;;;;5034860;28;20514;-59
2021/04/13 00:48:06;;;;;;;21.00;12.20;;;0.60;99.90;;;;;;5039372;28;20435;-59
2021/04/13 00:50:40;;;;;;;18.70;11.50;;;0.60;99.90;;;;;;5046985;28;20810;-59
2021/04/13 00:53:11;;;;;;;18.33;10.90;;;0.60;99.90;;;;;;5041179;28;20446;-59
2021/04/13 00:55:43;;;;;;;20.03;11.03;;;0.60;99.90;;;;;;5046476;28;20434;-59
2021/04/13 00:58:17;;;;;;;17.93;11.23;;;0.60;99.90;;;;;;5048218;28;20486;-60
2021/04/13 01:00:52;;;;;;;21.07;11.20;;;0.60;99.90;;;;;;5042819;28;20964;-59
2021/04/13 01:03:18;;;;;;;20.50;11.57;;;0.60;99.90;;;;;;5046213;28;20486;-59
2021/04/13 01:05:54;;;;;;;18.43;11.30;;;0.60;99.90;;;;;;5039948;28;20436;-59
2021/04/13 01:08:29;;;;;;;16.00;10.30;;;0.50;99.90;;;;;;5047910;28;20478;-59
2021/04/13 01:11:03;;;;;;;21.83;12.10;;;0.50;99.90;;;;;;5046351;28;20434;-60
2021/04/13 01:13:45;;;;;;;20.70;11.03;;;0.50;99.90;;;;;;5045408;28;20464;-59
2021/04/13 01:16:12;;;;;;;24.73;11.80;;;0.50;99.90;;;;;;5031880;28;20812;-59
2021/04/13 01:18:41;;;;;;;29.47;11.30;;;0.50;99.90;;;;;;5044717;28;20463;-59
2021/04/13 01:21:13;;;;;;;25.83;12.30;;;0.40;99.90;;;;;;5042319;28;20568;-59
2021/04/13 01:24:04;;;;;;;35.73;11.37;;;0.30;99.90;;;;;;5043619;28;20481;-59
2021/04/13 01:26:37;;;;;;;19.40;11.80;;;0.30;99.90;;;;;;5045144;28;20426;-59
2021/04/13 01:29:04;;;;;;;18.20;11.23;;;0.30;99.90;;;;;;5049233;28;20787;-59
2021/04/13 01:31:48;;;;;;;17.10;11.43;;;0.30;99.90;;;;;;5035274;28;20585;-59
2021/04/13 01:34:32;;;;;;;21.13;11.73;;;0.30;99.90;;;;;;5043779;28;20856;-59
2021/04/13 01:37:21;;;;;;;18.97;11.10;;;0.30;99.90;;;;;;5040821;28;20492;-60
2021/04/13 01:39:57;;;;;;;33.47;12.27;;;0.40;99.90;;;;;;5046449;28;20504;-59
2021/04/13 01:42:26;;;;;;;23.77;13.13;;;0.40;99.90;;;;;;5039526;28;20443;-60
2021/04/13 01:44:56;;;;;;;18.90;11.50;;;0.40;99.90;;;;;;5047970;28;20440;-58
2021/04/13 01:47:24;;;;;;;21.63;11.27;;;0.30;99.90;;;;;;5048312;28;20695;-58
2021/04/13 01:49:59;;;;;;;22.50;11.10;;;0.40;99.90;;;;;;5049039;28;20411;-59
2021/04/13 01:52:41;;;;;;;24.43;11.80;;;0.30;99.90;;;;;;5044115;28;20477;-59
2021/04/13 01:55:16;;;;;;;37.57;11.97;;;0.30;99.90;;;;;;5041970;28;20438;-59
2021/04/13 01:57:47;;;;;;;57.10;12.40;;;0.20;99.90;;;;;;5045319;28;21034;-59
2021/04/13 02:00:25;;;;;;;21.63;12.00;;;0.20;99.90;;;;;;5036977;28;20784;-59
2021/04/13 02:03:08;;;;;;;27.17;12.30;;;0.20;99.90;;;;;;5042342;28;20454;-59
2021/04/13 02:05:41;;;;;;;18.20;10.67;;;0.20;99.90;;;;;;5045880;28;20798;-60
2021/04/13 02:08:25;;;;;;;36.63;13.00;;;0.10;99.90;;;;;;5050601;28;20522;-58
2021/04/13 02:11:01;;;;;;;48.27;13.10;;;0.10;99.90;;;;;;5039478;28;20428;-60
2021/04/13 02:13:32;;;;;;;36.10;13.43;;;0.20;99.90;;;;;;5042643;28;20458;-59
2021/04/13 02:16:15;;;;;;;120.03;15.70;;;0.20;99.90;;;;;;5042449;28;20809;-59
2021/04/13 02:18:43;;;;;;;45.67;13.90;;;0.10;99.90;;;;;;5047541;28;20555;-59
2021/04/13 02:21:22;;;;;;;24.43;12.30;;;0.10;99.90;;;;;;5042791;28;20435;-58
2021/04/13 02:23:55;;;;;;;43.27;16.47;;;0.10;99.90;;;;;;5043363;28;20458;-60
2021/04/13 02:26:21;;;;;;;92.57;16.77;;;0.10;99.90;;;;;;5038051;28;20442;-59
2021/04/13 02:28:49;;;;;;;84.87;19.20;;;0.10;99.90;;;;;;5046166;28;20831;-59
2021/04/13 02:31:37;;;;;;;48.17;18.57;;;0.10;99.90;;;;;;5044655;28;20675;-60
2021/04/13 02:34:16;;;;;;;67.33;20.40;;;0.00;99.90;;;;;;5041645;28;20435;-59
2021/04/13 02:36:49;;;;;;;46.80;18.40;;;0.00;99.90;;;;;;5038514;28;20430;-60
2021/04/13 02:39:17;;;;;;;91.50;16.17;;;0.00;99.90;;;;;;5046901;28;20501;-60
2021/04/13 02:42:02;;;;;;;34.13;15.67;;;0.00;99.90;;;;;;5042084;28;20509;-59
2021/04/13 02:44:28;;;;;;;126.87;20.70;;;0.00;99.90;;;;;;5047163;28;20834;-59
2021/04/13 02:46:58;;;;;;;65.37;19.90;;;0.00;99.90;;;;;;5043015;28;20808;-59
2021/04/13 02:49:26;;;;;;;85.00;18.80;;;0.00;99.90;;;;;;5037795;28;20168;-59
2021/04/13 02:51:59;;;;;;;101.33;20.60;;;0.00;99.90;;;;;;5041909;28;20901;-59
2021/04/13 02:54:29;;;;;;;37.27;18.03;;;0.00;99.90;;;;;;5042707;28;20427;-60
2021/04/13 02:57:00;;;;;;;185.93;21.33;;;0.00;99.90;;;;;;5043324;28;20459;-59
2021/04/13 02:59:30;;;;;;;137.73;22.93;;;0.00;99.90;;;;;;5038983;28;20966;-59
2021/04/13 03:02:05;;;;;;;129.13;22.60;;;-0.10;99.90;;;;;;5043088;28;20462;-59
2021/04/13 03:04:41;;;;;;;128.37;23.03;;;-0.10;99.90;;;;;;5043511;28;20422;-59
2021/04/13 03:07:11;;;;;;;157.53;19.67;;;-0.10;99.90;;;;;;5043801;28;20505;-60
2021/04/13 03:09:37;;;;;;;169.50;19.83;;;-0.10;99.90;;;;;;5041157;28;20427;-60
2021/04/13 03:12:06;;;;;;;78.83;18.77;;;-0.20;99.90;;;;;;5036697;28;20455;-60
2021/04/13 03:14:45;;;;;;;251.27;23.80;;;-0.20;99.90;;;;;;5032012;28;20435;-59
2021/04/13 03:17:16;;;;;;;237.73;24.73;;;-0.30;99.90;;;;;;5042325;28;20510;-59
2021/04/13 03:19:45;;;;;;;79.03;24.27;;;-0.30;99.90;;;;;;5039462;28;20652;-59
2021/04/13 03:22:13;;;;;;;118.93;25.70;;;-0.30;99.90;;;;;;5042855;28;20472;-59
2021/04/13 03:24:43;;;;;;;109.87;24.90;;;-0.30;99.90;;;;;;5043469;28;20442;-59
2021/04/13 03:27:15;;;;;;;137.50;23.87;;;-0.30;99.90;;;;;;5031327;28;20423;-59
2021/04/13 03:30:04;;;;;;;52.43;20.83;;;-0.30;99.90;;;;;;5043887;28;20450;-59
2021/04/13 03:32:50;;;;;;;101.20;23.90;;;-0.30;99.90;;;;;;5034943;28;20471;-59
2021/04/13 03:35:15;;;;;;;118.53;22.27;;;-0.30;99.90;;;;;;5036500;28;21237;-59
2021/04/13 03:37:43;;;;;;;69.93;21.17;;;-0.40;99.90;;;;;;5042994;28;20472;-59
2021/04/13 03:40:14;;;;;;;163.33;20.47;;;-0.40;99.90;;;;;;5038090;28;20643;-59
2021/04/13 03:42:40;;;;;;;50.17;17.43;;;-0.40;99.90;;;;;;5036947;28;20462;-58
2021/04/13 03:45:08;;;;;;;71.53;19.93;;;-0.50;99.90;;;;;;5044753;28;20452;-59
2021/04/13 03:47:37;;;;;;;54.27;19.97;;;-0.40;99.90;;;;;;5041781;28;20436;-59
2021/04/13 03:50:06;;;;;;;119.40;20.43;;;-0.40;99.90;;;;;;5044024;28;20439;-59
2021/04/13 03:52:34;;;;;;;100.63;19.40;;;-0.40;99.90;;;;;;5041293;28;20458;-58
2021/04/13 03:55:21;;;;;;;79.57;19.10;;;-0.40;99.90;;;;;;5036801;28;20511;-60
2021/04/13 03:57:47;;;;;;;137.60;20.13;;;-0.40;99.90;;;;;;5047098;28;20460;-60
2021/04/13 04:00:18;;;;;;;164.97;21.00;;;-0.50;99.90;;;;;;5035793;28;20940;-60
2021/04/13 04:02:44;;;;;;;58.10;19.50;;;-0.50;99.90;;;;;;5036533;28;20817;-59
2021/04/13 04:05:15;;;;;;;82.20;19.70;;;-0.50;99.90;;;;;;5037246;28;20427;-59
2021/04/13 04:07:55;;;;;;;145.50;20.27;;;-0.60;99.90;;;;;;5044192;28;20215;-59
2021/04/13 04:10:42;;;;;;;50.53;18.00;;;-0.60;99.90;;;;;;5031831;28;20431;-59
2021/04/13 04:13:10;;;;;;;69.13;18.40;;;-0.70;99.90;;;;;;5043739;28;20868;-59
2021/04/13 04:15:40;;;;;;;119.57;19.80;;;-0.70;99.90;;;;;;5036884;28;20438;-59
2021/04/13 04:18:31;;;;;;;71.10;17.43;;;-0.70;99.90;;;;;;5038917;28;20462;-59
2021/04/13 04:20:58;;;;;;;176.77;19.73;;;-0.70;99.90;;;;;;5039811;28;20462;-59
2021/04/13 04:23:33;;;;;;;82.47;18.23;;;-0.80;99.90;;;;;;5042885;28;20461;-59
2021/04/13 04:26:02;;;;;;;64.90;19.33;;;-0.80;99.90;;;;;;5039331;28;20485;-60
2021/04/13 04:28:41;;;;;;;50.07;17.40;;;-0.80;99.90;;;;;;5043146;28;20459;-60
2021/04/13 04:31:19;;;;;;;117.83;18.00;;;-0.80;99.90;;;;;;5043092;28;20435;-60
2021/04/13 04:33:45;;;;;;;63.30;16.17;;;-0.80;99.90;;;;;;5042344;28;21211;-59
2021/04/13 04:36:30;;;;;;;77.70;16.30;;;-0.90;99.90;;;;;;5038492;28;20437;-60
2021/04/13 04:39:19;;;;;;;57.83;16.70;;;-0.90;99.90;;;;;;5040260;28;20690;-59
2021/04/13 04:41:45;;;;;;;69.57;18.63;;;-0.90;99.90;;;;;;5028809;28;20548;-60
2021/04/13 04:44:21;;;;;;;52.87;18.03;;;-0.90;99.90;;;;;;5031462;28;20445;-61
2021/04/13 04:46:47;;;;;;;86.63;17.07;;;-0.90;99.90;;;;;;5040264;28;20172;-59
2021/04/13 04:49:15;;;;;;;60.60;16.57;;;-0.90;99.90;;;;;;5046275;28;20426;-58
2021/04/13 04:51:42;;;;;;;177.60;17.40;;;-0.90;99.90;;;;;;5034482;28;20204;-59
2021/04/13 04:54:09;;;;;;;114.33;15.13;;;-0.90;99.90;;;;;;5036441;28;20970;-60
2021/04/13 04:56:35;;;;;;;46.73;14.27;;;-1.00;99.90;;;;;;5040719;28;20844;-57
2021/04/13 04:59:01;;;;;;;47.10;14.10;;;-1.00;99.90;;;;;;5043361;28;20463;-60
2021/04/13 05:01:27;;;;;;;42.27;14.57;;;-1.00;99.90;;;;;;5037851;28;21240;-59
2021/04/13 05:03:53;;;;;;;86.40;20.07;;;-1.10;99.90;;;;;;5043894;28;20528;-59
2021/04/13 05:06:19;;;;;;;130.37;21.30;;;-1.10;99.90;;;;;;5040685;28;20564;-58
2021/04/13 05:08:46;;;;;;;64.03;19.20;;;-1.20;99.90;;;;;;5044299;28;20183;-58
2021/04/13 05:11:12;;;;;;;115.73;19.67;;;-1.20;99.90;;;;;;5042938;28;20437;-58
2021/04/13 05:13:38;;;;;;;114.77;20.10;;;-1.30;99.90;;;;;;5051046;28;20431;-58
2021/04/13 05:16:04;;;;;;;81.63;18.17;;;-1.30;99.90;;;;;;5036803;28;20401;-57
2021/04/13 05:18:30;;;;;;;100.37;20.50;;;-1.30;99.90;;;;;;5068019;28;20228;-61
2021/04/13 05:20:55;;;;;;;104.90;19.40;;;-1.30;99.90;;;;;;5065607;28;20589;-58
2021/04/13 05:23:24;;;;;;;47.53;17.80;;;-1.30;99.90;;;;;;5068520;28;20323;-59
2021/04/13 05:25:50;;;;;;;51.73;19.47;;;-1.40;99.90;;;;;;5065647;28;20161;-60
2021/04/13 05:28:17;;;;;;;93.27;19.90;;;-1.30;99.90;;;;;;5061683;28;20435;-57
2021/04/13 05:30:43;;;;;;;53.87;18.30;;;-1.20;99.90;;;;;;5056260;28;20213;-54
2021/04/13 05:33:10;;;;;;;61.60;20.57;;;-1.20;99.90;;;;;;5039067;28;20892;-59
2021/04/13 05:35:38;;;;;;;45.50;19.23;;;-1.10;99.90;;;;;;5040171;28;20182;-56
2021/04/13 05:38:11;;;;;;;58.40;20.43;;;-1.10;99.90;;;;;;5041237;28;20917;-58
2021/04/13 05:40:39;;;;;;;52.90;19.20;;;-1.00;99.90;;;;;;5036016;28;20435;-58
2021/04/13 05:43:05;;;;;;;50.83;19.90;;;-0.90;99.90;;;;;;5048011;28;20495;-60
2021/04/13 05:45:34;;;;;;;58.27;21.30;;;-0.80;99.90;;;;;;5035994;28;20436;-59
2021/04/13 05:48:01;;;;;;;63.80;22.87;;;-0.80;99.90;;;;;;5040579;28;20425;-61
2021/04/13 05:50:28;;;;;;;48.10;20.40;;;-0.70;99.90;;;;;;5047314;28;20442;-59
2021/04/13 05:52:54;;;;;;;43.93;18.03;;;-0.70;99.90;;;;;;5046295;28;20470;-59
2021/04/13 05:55:20;;;;;;;49.67;19.63;;;-0.70;99.90;;;;;;5042700;28;20871;-59
2021/04/13 05:57:51;;;;;;;41.77;16.57;;;-0.60;99.90;;;;;;5038029;28;20206;-60
2021/04/13 06:00:22;;;;;;;38.13;16.50;;;-0.60;99.90;;;;;;5039290;28;20434;-59
2021/04/13 06:02:48;;;;;;;43.00;16.47;;;-0.50;99.90;;;;;;5041070;28;20533;-59
2021/04/13 06:05:15;;;;;;;39.13;17.10;;;-0.50;99.90;;;;;;5042268;28;20525;-60
2021/04/13 06:07:41;;;;;;;48.30;17.00;;;-0.50;99.90;;;;;;5042362;28;20180;-60
2021/04/13 06:10:08;;;;;;;75.47;21.70;;;-0.50;99.90;;;;;;5048777;28;21066;-60
2021/04/13 06:12:34;;;;;;;45.47;18.30;;;-0.50;99.90;;;;;;5044603;28;20981;-61
2021/04/13 06:15:00;;;;;;;41.97;16.53;;;-0.50;99.90;;;;;;5044755;28;20438;-64
2021/04/13 06:17:26;;;;;;;43.73;17.97;;;-0.50;99.90;;;;;;5038937;28;21010;-59
2021/04/13 06:19:52;;;;;;;44.00;17.50;;;-0.40;99.90;;;;;;5040915;28;20466;-60
2021/04/13 06:22:17;;;;;;;44.77;17.70;;;-0.40;99.90;;;;;;5037883;28;20713;-58
2021/04/13 06:24:43;;;;;;;42.60;18.60;;;-0.30;99.90;;;;;;5040362;28;20180;-56
2021/04/13 06:27:09;;;;;;;55.30;21.17;;;-0.30;99.90;;;;;;5036388;28;20181;-60
2021/04/13 06:29:38;;;;;;;48.40;19.70;;;-0.30;99.90;;;;;;5037031;28;20726;-59
2021/04/13 06:32:06;;;;;;;42.87;18.43;;;-0.30;99.90;;;;;;5036285;28;20466;-59
2021/04/13 06:34:32;;;;;;;44.60;19.87;;;-0.30;99.90;;;;;;5047817;28;20469;-57
2021/04/13 06:37:01;;;;;;;42.60;17.80;;;-0.30;99.90;;;;;;5043447;28;20469;-59
2021/04/13 06:39:27;;;;;;;40.93;16.57;;;-0.20;99.90;;;;;;5037576;28;20208;-59
2021/04/13 06:41:58;;;;;;;40.97;17.73;;;-0.10;99.90;;;;;;5032970;28;21022;-59
2021/04/13 06:44:45;;;;;;;35.50;17.07;;;0.10;99.90;;;;;;5051955;28;20439;-59
2021/04/13 06:47:23;;;;;;;37.33;18.17;;;0.30;99.90;;;;;;5042407;28;20427;-59
2021/04/13 06:50:07;;;;;;;38.80;17.03;;;0.40;99.90;;;;;;5040324;28;20446;-59
2021/04/13 06:52:48;;;;;;;46.83;19.23;;;0.60;99.70;;;;;;5036689;28;20461;-60
2021/04/13 06:55:56;;;;;;;41.33;19.00;;;0.80;99.70;;;;;;5041879;28;20768;-59
2021/04/13 06:58:46;;;;;;;47.67;21.13;;;1.00;99.70;;;;;;5026337;28;20541;-60
2021/04/13 07:01:26;;;;;;;43.30;19.20;;;1.20;99.80;;;;;;5039261;28;20431;-59
2021/04/13 07:04:00;;;;;;;48.40;19.73;;;1.40;98.90;;;;;;5056570;28;20426;-60
2021/04/13 07:06:31;;;;;;;46.97;19.50;;;1.50;98.40;;;;;;5035645;28;20554;-59
2021/04/13 07:09:23;;;;;;;46.13;20.77;;;1.60;97.60;;;;;;5041654;28;20419;-60
2021/04/13 07:12:31;;;;;;;49.30;19.27;;;1.60;97.50;;;;;;5038515;28;20808;-59
2021/04/13 07:15:26;;;;;;;48.90;20.03;;;1.60;97.70;;;;;;5030769;28;20497;-60
2021/04/13 07:18:12;;;;;;;41.73;20.20;;;1.70;98.40;;;;;;5042839;28;20452;-60
2021/04/13 07:20:41;;;;;;;46.57;20.10;;;1.80;98.40;;;;;;5046201;28;20866;-59
2021/04/13 07:23:19;;;;;;;46.87;19.23;;;1.80;98.30;;;;;;5043644;28;20522;-59
2021/04/13 07:25:53;;;;;;;54.83;21.97;;;1.90;98.90;;;;;;5037979;28;20517;-60
2021/04/13 07:28:33;;;;;;;41.40;19.17;;;2.00;98.80;;;;;;5037621;28;20439;-59
2021/04/13 07:31:09;;;;;;;46.50;20.00;;;2.10;98.00;;;;;;5041665;28;20438;-60
2021/04/13 07:33:35;;;;;;;47.93;20.93;;;2.20;97.70;;;;;;5037873;28;20519;-61
2021/04/13 07:36:07;;;;;;;42.43;19.53;;;2.30;97.90;;;;;;5044039;28;20816;-59
2021/04/13 07:38:41;;;;;;;36.87;18.10;;;2.40;98.10;;;;;;5038539;28;21156;-59
2021/04/13 07:41:41;;;;;;;41.80;18.50;;;2.50;97.50;;;;;;5041817;28;20428;-59
2021/04/13 07:44:36;;;;;;;40.10;18.10;;;2.50;97.20;;;;;;5045572;28;20428;-59
2021/04/13 07:47:08;;;;;;;34.97;16.77;;;2.70;97.20;;;;;;5043417;28;20429;-59
2021/04/13 07:49:45;;;;;;;35.90;17.50;;;2.80;97.30;;;;;;5034566;28;20958;-59
2021/04/13 07:52:22;;;;;;;41.70;18.10;;;3.00;96.90;;;;;;5037194;28;20474;-62
2021/04/13 07:55:16;;;;;;;34.50;15.23;;;3.20;97.20;;;;;;5038679;28;20512;-65
2021/04/13 07:57:55;;;;;;;41.80;17.23;;;3.40;95.90;;;;;;5041942;28;20459;-60
2021/04/13 08:00:29;;;;;;;21.50;10.87;;;3.70;95.80;;;;;;5041160;28;20420;-61
2021/04/13 08:03:13;;;;;;;18.23;11.23;;;3.80;94.10;;;;;;5047813;28;20977;-60
2021/04/13 08:05:44;;;;;;;21.53;9.77;;;4.10;93.20;;;;;;5040619;28;20429;-59
2021/04/13 08:08:25;;;;;;;13.17;9.30;;;4.20;91.80;;;;;;5040202;28;20445;-60
2021/04/13 08:10:50;;;;;;;15.77;10.03;;;4.40;90.80;;;;;;5042020;28;20429;-60
2021/04/13 08:13:29;;;;;;;15.40;9.63;;;4.50;90.10;;;;;;5043751;28;20461;-61
2021/04/13 08:15:56;;;;;;;15.17;9.27;;;4.60;88.50;;;;;;5045664;28;20182;-60
2021/04/13 08:18:41;;;;;;;18.60;11.37;;;4.60;89.30;;;;;;5043436;28;20503;-60
2021/04/13 08:21:30;;;;;;;16.67;10.20;;;4.50;89.10;;;;;;5039716;28;20948;-59
2021/04/13 08:23:56;;;;;;;25.23;12.00;;;4.30;85.30;;;;;;5042087;28;20452;-60
2021/04/13 08:26:31;;;;;;;19.80;11.03;;;3.90;86.00;;;;;;5045616;28;20456;-60
2021/04/13 08:34:51;;;;;;;16.10;9.50;;;3.20;91.10;;;;;;5062958;28;21043;-57
2021/04/13 08:37:42;;;;;;;16.60;10.00;;;3.00;91.30;;;;;;5071904;28;20452;-57
2021/04/13 08:40:35;;;;;;;17.20;10.30;;;2.90;91.90;;;;;;5068143;28;20858;-56
2021/04/13 08:43:15;;;;;;;18.20;10.20;;;2.80;92.50;;;;;;5068180;28;20425;-57
2021/04/13 08:45:49;;;;;;;19.43;11.70;;;2.70;93.10;;;;;;5068962;28;20773;-57
2021/04/13 08:48:28;;;;;;;21.53;11.30;;;2.70;93.60;;;;;;5067218;28;20601;-57
2021/04/13 08:51:17;;;;;;;17.30;11.13;;;2.70;93.80;;;;;;5060596;28;20473;-57
2021/04/13 08:53:48;;;;;;;14.77;10.03;;;2.70;93.80;;;;;;5062879;28;20429;-57
2021/04/13 08:56:22;;;;;;;17.03;10.50;;;2.70;93.20;;;;;;5065388;28;20439;-56
2021/04/13 08:58:55;;;;;;;15.73;9.83;;;2.80;92.80;;;;;;5065640;28;20483;-56
2021/04/13 09:01:30;;;;;;;14.50;9.50;;;2.80;92.70;;;;;;5059908;28;20454;-56
2021/04/13 09:03:56;;;;;;;14.60;8.80;;;2.90;92.80;;;;;;5059838;28;20404;-55
2021/04/13 09:06:43;;;;;;;18.60;8.27;;;3.00;92.40;;;;;;5065007;28;20422;-55
2021/04/13 09:09:28;;;;;;;17.10;9.03;;;3.00;91.50;;;;;;5067088;28;20924;-56
2021/04/13 09:12:25;;;;;;;12.50;7.40;;;3.10;91.30;;;;;;5064889;28;20526;-56
2021/04/13 09:15:00;;;;;;;11.80;6.77;;;3.20;90.20;;;;;;5063859;28;20450;-57
2021/04/13 09:17:39;;;;;;;13.27;7.43;;;3.30;87.20;;;;;;5085659;28;20460;-57
2021/04/13 09:20:14;;;;;;;13.03;7.80;;;3.30;86.40;;;;;;5085590;28;20466;-58
2021/04/13 09:23:07;;;;;;;13.67;7.77;;;3.40;87.30;;;;;;5092112;28;21142;-57
2021/04/13 09:25:36;;;;;;;14.30;7.63;;;3.60;88.30;;;;;;5062523;28;20511;-57
2021/04/13 09:28:19;;;;;;;15.50;8.53;;;3.70;88.20;;;;;;5062621;28;20424;-56
2021/04/13 09:31:00;;;;;;;14.60;8.00;;;3.90;88.90;;;;;;5063823;28;20472;-55
2021/04/13 09:33:34;;;;;;;11.97;7.57;;;4.10;86.70;;;;;;5060845;28;20426;-56
2021/04/13 09:36:07;;;;;;;13.40;7.93;;;4.30;84.40;;;;;;5060937;28;20522;-57
2021/04/13 09:38:43;;;;;;;13.73;7.20;;;4.50;78.20;;;;;;5054089;28;20466;-57
2021/04/13 09:41:43;;;;;;;12.33;7.73;;;4.70;74.20;;;;;;5064259;28;20452;-56
2021/04/13 09:44:17;;;;;;;9.93;6.67;;;4.80;74.80;;;;;;5062700;28;20578;-58
2021/04/13 09:47:08;;;;;;;10.00;6.60;;;4.80;76.00;;;;;;5055568;28;20462;-58
2021/04/13 09:50:18;;;;;;;8.03;5.80;;;4.90;75.30;;;;;;5061097;28;20992;-56
2021/04/13 09:52:44;;;;;;;8.60;6.00;;;4.80;71.60;;;;;;5069174;28;20428;-57
2021/04/13 09:55:29;;;;;;;12.40;7.67;;;4.80;71.40;;;;;;5075584;28;20439;-57
2021/04/13 09:58:17;;;;;;;23.57;6.67;;;4.90;72.70;;;;;;5052136;28;20655;-55
2021/04/13 10:00:42;;;;;;;8.37;6.10;;;4.80;72.00;;;;;;5061604;28;20483;-54
2021/04/13 10:03:29;;;;;;;10.07;5.93;;;4.90;72.60;;;;;;5064551;28;20460;-56
2021/04/13 10:05:59;;;;;;;9.30;6.80;;;5.00;72.80;;;;;;5073676;28;20185;-54
2021/04/13 10:08:34;;;;;;;13.13;7.20;;;5.20;72.60;;;;;;5069891;28;20458;-54
2021/04/13 10:11:09;;;;;;;16.03;6.17;;;5.30;72.30;;;;;;5081039;28;20458;-55
2021/04/13 10:13:41;;;;;;;10.50;5.07;;;5.40;71.70;;;;;;5079231;28;20428;-57
2021/04/13 10:16:06;;;;;;;4.93;3.80;;;5.50;68.50;;;;;;5063868;28;20439;-57
2021/04/13 10:18:57;;;;;;;8.37;4.10;;;5.50;61.60;;;;;;5080425;28;20606;-57
2021/04/13 10:21:47;;;;;;;5.97;3.93;;;5.60;56.80;;;;;;5061000;28;20265;-57
2021/04/13 10:24:25;;;;;;;7.03;4.80;;;5.60;55.40;;;;;;5059732;28;20451;-57
2021/04/13 10:27:16;;;;;;;9.90;5.00;;;5.70;54.90;;;;;;5064425;28;20463;-56
2021/04/13 10:29:56;;;;;;;6.93;4.67;;;5.80;55.20;;;;;;5059237;28;20558;-57
2021/04/13 10:32:37;;;;;;;7.00;4.70;;;6.00;55.90;;;;;;5060827;28;21537;-56
2021/04/13 10:35:21;;;;;;;7.73;4.73;;;6.10;56.00;;;;;;5061536;28;20489;-56
2021/04/13 10:38:27;;;;;;;4.63;3.27;;;6.20;55.10;;;;;;5061888;28;20457;-56
2021/04/13 10:41:19;;;;;;;8.20;4.93;;;6.20;54.00;;;;;;5064521;28;20968;-54
2021/04/13 10:44:12;;;;;;;5.07;4.57;;;6.50;53.70;;;;;;5061847;28;20494;-56
2021/04/13 10:46:52;;;;;;;5.20;3.70;;;6.70;53.50;;;;;;5055980;28;20501;-56
2021/04/13 10:49:36;;;;;;;5.47;3.83;;;6.80;51.20;;;;;;5077030;28;20463;-57
2021/04/13 10:52:10;;;;;;;4.23;3.83;;;6.90;50.50;;;;;;5060117;28;20437;-56
2021/04/13 10:54:39;;;;;;;4.17;3.77;;;6.90;50.40;;;;;;5059369;28;20428;-56
2021/04/13 10:57:26;;;;;;;7.40;4.70;;;7.10;51.60;;;;;;5057476;28;20428;-55
2021/04/13 11:00:35;;;;;;;6.03;4.07;;;7.40;53.10;;;;;;5057981;28;20472;-57
2021/04/13 11:03:12;;;;;;;6.90;4.83;;;7.90;52.00;;;;;;5075402;28;20513;-56
2021/04/13 11:05:57;;;;;;;6.13;3.97;;;8.30;51.10;;;;;;5053238;28;20956;-57
2021/04/13 11:09:07;;;;;;;5.13;4.30;;;8.60;48.20;;;;;;5061450;28;20428;-56
2021/04/13 11:11:59;;;;;;;5.70;4.33;;;8.90;47.40;;;;;;5063194;28;20452;-55
2021/04/13 11:15:03;;;;;;;5.20;4.13;;;9.20;46.10;;;;;;5064969;28;20948;-56
2021/04/13 11:17:49;;;;;;;5.57;4.40;;;9.60;46.20;;;;;;5063658;28;20465;-53
2021/04/13 11:20:22;;;;;;;6.73;4.87;;;9.80;45.00;;;;;;5065600;28;20456;-53
2021/04/13 11:23:09;;;;;;;5.10;4.60;;;10.00;42.40;;;;;;5063138;28;20538;-53
2021/04/13 11:25:50;;;;;;;8.93;4.20;;;9.80;41.70;;;;;;5061314;28;20521;-53
2021/04/13 11:28:28;;;;;;;8.40;4.50;;;9.40;41.20;;;;;;5060672;28;20439;-51
2021/04/13 11:31:15;;;;;;;8.03;3.73;;;8.90;41.40;;;;;;5060400;28;20521;-51
2021/04/13 11:34:05;;;;;;;4.53;4.13;;;8.50;42.10;;;;;;5064641;28;20486;-52
2021/04/13 11:36:47;;;;;;;4.63;4.13;;;8.10;42.90;;;;;;5062757;28;20437;-53
2021/04/13 11:39:36;;;;;;;4.43;4.10;;;7.80;43.30;;;;;;5069409;28;20456;-51
2021/04/13 11:42:15;;;;;;;5.10;4.30;;;7.60;43.60;;;;;;5067196;28;20436;-56
2021/04/13 11:45:28;;;;;;;6.00;4.57;;;7.60;42.90;;;;;;5064250;28;20929;-53
2021/04/13 11:48:00;;;;;;;5.77;3.90;;;7.70;42.80;;;;;;5062094;28;20806;-56
2021/04/13 11:50:41;;;;;;;8.23;3.90;;;8.00;42.50;;;;;;5062964;28;20480;-56
2021/04/13 11:53:11;;;;;;;4.47;4.00;;;8.00;39.90;;;;;;5064312;28;21293;-56
2021/04/13 11:55:45;;;;;;;8.23;4.60;;;7.90;40.20;;;;;;5063512;28;20507;-55
2021/04/13 11:58:25;;;;;;;6.83;4.80;;;7.80;42.00;;;;;;5059957;28;20468;-56
2021/04/13 12:00:52;;;;;;;5.80;5.03;;;7.70;43.20;;;;;;5066063;28;20467;-55
2021/04/13 12:03:17;;;;;;;5.53;4.50;;;7.40;43.90;;;;;;5061072;28;20432;-55
2021/04/13 12:05:49;;;;;;;5.10;4.20;;;7.10;44.50;;;;;;5062877;28;20437;-56
2021/04/13 12:08:30;;;;;;;4.10;3.70;;;6.90;43.80;;;;;;5059766;28;20266;-57
2021/04/13 12:10:59;;;;;;;4.90;4.40;;;6.60;44.60;;;;;;5058667;28;21508;-56
2021/04/13 12:13:45;;;;;;;4.70;4.30;;;6.50;45.50;;;;;;5060725;28;20518;-55
2021/04/13 12:16:20;;;;;;;5.80;4.27;;;6.60;46.30;;;;;;5079342;28;20447;-55
2021/04/13 12:18:50;;;;;;;4.60;3.80;;;7.10;45.70;;;;;;5063628;28;20556;-54
2021/04/13 12:21:22;;;;;;;5.97;4.10;;;7.60;43.90;;;;;;5062897;28;21101;-55
2021/04/13 12:24:00;;;;;;;4.40;4.00;;;8.50;43.80;;;;;;5059930;28;20513;-56
2021/04/13 12:26:33;;;;;;;11.00;5.00;;;9.40;43.30;;;;;;5056105;28;20437;-53
2021/04/13 12:29:18;;;;;;;9.60;5.40;;;10.00;43.40;;;;;;5061201;28;20929;-55
2021/04/13 12:32:04;;;;;;;8.40;5.70;;;10.30;43.60;;;;;;5067510;28;20971;-54
2021/04/13 12:34:50;;;;;;;17.93;5.67;;;9.90;45.20;;;;;;5062774;28;20447;-53
2021/04/13 12:37:45;;;;;;;7.30;5.57;;;9.20;45.30;;;;;;5063618;28;20433;-55
2021/04/13 12:40:19;;;;;;;11.23;5.53;;;8.50;46.80;;;;;;5065194;28;20465;-57
2021/04/13 12:42:51;;;;;;;7.23;5.73;;;7.90;48.00;;;;;;5068401;28;20511;-55
2021/04/13 12:45:20;;;;;;;11.30;5.10;;;7.40;48.70;;;;;;5065770;28;20762;-55
2021/04/13 12:48:08;;;;;;;6.87;4.97;;;7.00;50.00;;;;;;5066534;28;20455;-56
2021/04/13 12:50:40;;;;;;;10.57;5.60;;;6.70;48.70;;;;;;5067843;28;20460;-55
2021/04/13 12:53:20;;;;;;;5.80;4.70;;;6.40;48.70;;;;;;5070173;28;21039;-56
2021/04/13 12:55:46;;;;;;;7.70;5.20;;;6.10;48.70;;;;;;5055653;28;20432;-55
2021/04/13 12:58:14;;;;;;;6.60;4.87;;;5.90;48.60;;;;;;5067373;28;20518;-56
2021/04/13 13:00:48;;;;;;;6.07;5.00;;;5.70;48.90;;;;;;5064721;28;20448;-54
2021/04/13 13:03:22;;;;;;;5.33;4.20;;;5.60;49.20;;;;;;5068708;28;20433;-56
2021/04/13 13:05:53;;;;;;;4.70;4.30;;;5.50;49.60;;;;;;5068407;28;20427;-55
2021/04/13 13:08:27;;;;;;;6.97;5.03;;;5.50;50.10;;;;;;5068599;28;20424;-56
2021/04/13 13:10:56;;;;;;;11.13;4.60;;;5.50;50.40;;;;;;5066123;28;20456;-54
2021/04/13 13:13:34;;;;;;;6.00;4.37;;;5.40;49.80;;;;;;5065437;28;20527;-54
2021/04/13 13:16:14;;;;;;;8.63;5.30;;;5.50;49.50;;;;;;5060164;28;20433;-54
2021/04/13 13:18:46;;;;;;;7.20;6.30;;;5.50;49.40;;;;;;5062054;28;20999;-54
2021/04/13 13:21:23;;;;;;;9.40;6.30;;;5.50;50.70;;;;;;5066594;28;20510;-55
2021/04/13 13:23:51;;;;;;;8.30;5.70;;;5.50;54.70;;;;;;5067305;28;20929;-53
2021/04/13 13:26:25;;;;;;;10.13;7.60;;;5.50;56.90;;;;;;5056900;28;20429;-55
2021/04/13 13:28:51;;;;;;;8.63;6.70;;;5.50;57.30;;;;;;5066073;28;20499;-53